sensor_id;sensor_type;location;lat;lon;timestamp;P1;durP1;ratioP1;P2;durP2;ratioP2
9445;SDS011;4761;49.490;10.908;2023-01-10T00:01:47;1.30;;;0.40;;
9445;SDS011;4761;49.490;10.908;2023-01-10T00:04:13;0.40;;;0.40;;
9445;SDS011;4761;49.490;10.908;2023-01-10T00:06:38;0.80;;;0.53;;
9445;SDS011;4761;49.490;10.908;2023-01-10T00:09:04;1.37;;;0.70;;
9445;SDS011;4761;49.490;10.908;2023-01-10T00:11:29;0.50;;;0.40;;
9445;SDS011;4761;49.490;10.908;2023-01-10T00:14:13;0.40;;;0.40;;
9445;SDS011;4761;49.490;10.908;2023-01-10T00:16:39;0.47;;;0.40;;
9445;SDS011;4761;49.490;10.908;2023-01-10T00:19:06;0.47;;;0.40;;
9445;SDS011;4761;49.490;10.908;2023-01-10T00:21:34;0.80;;;0.60;;
9445;SDS011;4761;49.490;10.908;2023-01-10T00:24:00;0.40;;;0.40;;
9445;SDS011;4761;49.490;10.908;2023-01-10T00:30:06;0.90;;;0.50;;
9445;SDS011;4761;49.490;10.908;2023-01-10T00:32:38;1.13;;;0.60;;
9445;SDS011;4761;49.490;10.908;2023-01-10T00:35:05;0.67;;;0.53;;
9445;SDS011;4761;49.490;10.908;2023-01-10T00:37:31;0.50;;;0.50;;
9445;SDS011;4761;49.490;10.908;2023-01-10T00:39:57;0.70;;;0.60;;
9445;SDS011;4761;49.490;10.908;2023-01-10T00:42:23;0.70;;;0.60;;
9445;SDS011;4761;49.490;10.908;2023-01-10T00:45:08;0.80;;;0.50;;
9445;SDS011;4761;49.490;10.908;2023-01-10T00:47:35;0.70;;;0.40;;
9445;SDS011;4761;49.490;10.908;2023-01-10T00:50:01;0.50;;;0.50;;
9445;SDS011;4761;49.490;10.908;2023-01-10T00:52:29;1.10;;;0.50;;
9445;SDS011;4761;49.490;10.908;2023-01-10T00:54:55;0.67;;;0.60;;
9445;SDS011;4761;49.490;10.908;2023-01-10T00:57:20;0.90;;;0.60;;
9445;SDS011;4761;49.490;10.908;2023-01-10T00:59:46;0.40;;;0.40;;
9445;SDS011;4761;49.490;10.908;2023-01-10T01:02:12;0.93;;;0.60;;
9445;SDS011;4761;49.490;10.908;2023-01-10T01:04:37;0.60;;;0.50;;
9445;SDS011;4761;49.490;10.908;2023-01-10T01:07:03;0.73;;;0.50;;
9445;SDS011;4761;49.490;10.908;2023-01-10T01:09:28;0.60;;;0.50;;
9445;SDS011;4761;49.490;10.908;2023-01-10T01:11:54;0.87;;;0.60;;
9445;SDS011;4761;49.490;10.908;2023-01-10T01:14:20;0.60;;;0.60;;
9445;SDS011;4761;49.490;10.908;2023-01-10T01:16:47;0.43;;;0.33;;
9445;SDS011;4761;49.490;10.908;2023-01-10T01:19:13;0.40;;;0.40;;
9445;SDS011;4761;49.490;10.908;2023-01-10T01:21:38;0.87;;;0.60;;
9445;SDS011;4761;49.490;10.908;2023-01-10T01:24:04;0.60;;;0.50;;
9445;SDS011;4761;49.490;10.908;2023-01-10T01:26:29;0.30;;;0.30;;
9445;SDS011;4761;49.490;10.908;2023-01-10T01:28:55;0.43;;;0.43;;
9445;SDS011;4761;49.490;10.908;2023-01-10T01:31:20;0.70;;;0.50;;
9445;SDS011;4761;49.490;10.908;2023-01-10T01:33:46;0.67;;;0.60;;
9445;SDS011;4761;49.490;10.908;2023-01-10T01:36:12;0.77;;;0.60;;
9445;SDS011;4761;49.490;10.908;2023-01-10T01:38:39;0.50;;;0.50;;
9445;SDS011;4761;49.490;10.908;2023-01-10T01:41:05;0.50;;;0.50;;
9445;SDS011;4761;49.490;10.908;2023-01-10T01:43:58;0.83;;;0.50;;
9445;SDS011;4761;49.490;10.908;2023-01-10T01:46:26;0.40;;;0.40;;
9445;SDS011;4761;49.490;10.908;2023-01-10T01:48:52;0.40;;;0.40;;
9445;SDS011;4761;49.490;10.908;2023-01-10T01:51:18;0.40;;;0.40;;
9445;SDS011;4761;49.490;10.908;2023-01-10T01:53:50;0.40;;;0.40;;
9445;SDS011;4761;49.490;10.908;2023-01-10T01:56:25;0.40;;;0.40;;
9445;SDS011;4761;49.490;10.908;2023-01-10T01:59:06;0.40;;;0.40;;
9445;SDS011;4761;49.490;10.908;2023-01-10T02:01:38;0.40;;;0.40;;
9445;SDS011;4761;49.490;10.908;2023-01-10T02:04:12;0.83;;;0.53;;
9445;SDS011;4761;49.490;10.908;2023-01-10T02:06:45;0.57;;;0.50;;
9445;SDS011;4761;49.490;10.908;2023-01-10T02:09:33;0.40;;;0.40;;
9445;SDS011;4761;49.490;10.908;2023-01-10T02:12:04;0.40;;;0.40;;
9445;SDS011;4761;49.490;10.908;2023-01-10T02:14:31;1.10;;;0.50;;
9445;SDS011;4761;49.490;10.908;2023-01-10T02:16:58;0.73;;;0.60;;
9445;SDS011;4761;49.490;10.908;2023-01-10T02:30:21;0.30;;;0.30;;
9445;SDS011;4761;49.490;10.908;2023-01-10T02:36:19;0.40;;;0.40;;
9445;SDS011;4761;49.490;10.908;2023-01-10T02:39:06;0.33;;;0.33;;
9445;SDS011;4761;49.490;10.908;2023-01-10T02:41:49;0.43;;;0.43;;
9445;SDS011;4761;49.490;10.908;2023-01-10T02:44:33;0.40;;;0.40;;
9445;SDS011;4761;49.490;10.908;2023-01-10T02:47:18;0.50;;;0.37;;
9445;SDS011;4761;49.490;10.908;2023-01-10T02:49:45;0.47;;;0.40;;
9445;SDS011;4761;49.490;10.908;2023-01-10T02:52:14;0.30;;;0.30;;
9445;SDS011;4761;49.490;10.908;2023-01-10T02:54:52;0.40;;;0.33;;
9445;SDS011;4761;49.490;10.908;2023-01-10T03:11:08;0.50;;;0.40;;
9445;SDS011;4761;49.490;10.908;2023-01-10T03:13:49;0.47;;;0.43;;
9445;SDS011;4761;49.490;10.908;2023-01-10T03:16:21;0.80;;;0.40;;
9445;SDS011;4761;49.490;10.908;2023-01-10T03:18:53;0.43;;;0.40;;
9445;SDS011;4761;49.490;10.908;2023-01-10T03:21:24;0.40;;;0.40;;
9445;SDS011;4761;49.490;10.908;2023-01-10T03:23:52;0.40;;;0.40;;
9445;SDS011;4761;49.490;10.908;2023-01-10T03:26:23;0.80;;;0.53;;
9445;SDS011;4761;49.490;10.908;2023-01-10T03:28:58;0.60;;;0.50;;
9445;SDS011;4761;49.490;10.908;2023-01-10T03:31:29;0.40;;;0.40;;
9445;SDS011;4761;49.490;10.908;2023-01-10T03:34:00;0.60;;;0.40;;
9445;SDS011;4761;49.490;10.908;2023-01-10T03:44:58;0.70;;;0.50;;
9445;SDS011;4761;49.490;10.908;2023-01-10T03:47:32;0.37;;;0.37;;
9445;SDS011;4761;49.490;10.908;2023-01-10T03:50:18;0.53;;;0.40;;
9445;SDS011;4761;49.490;10.908;2023-01-10T03:52:46;0.50;;;0.50;;
9445;SDS011;4761;49.490;10.908;2023-01-10T03:55:13;0.40;;;0.40;;
9445;SDS011;4761;49.490;10.908;2023-01-10T03:57:42;0.40;;;0.40;;
9445;SDS011;4761;49.490;10.908;2023-01-10T04:00:09;0.50;;;0.47;;
9445;SDS011;4761;49.490;10.908;2023-01-10T04:02:36;0.40;;;0.40;;
9445;SDS011;4761;49.490;10.908;2023-01-10T04:05:01;0.40;;;0.40;;
9445;SDS011;4761;49.490;10.908;2023-01-10T04:07:27;0.40;;;0.40;;
9445;SDS011;4761;49.490;10.908;2023-01-10T04:09:53;0.80;;;0.40;;
9445;SDS011;4761;49.490;10.908;2023-01-10T04:12:18;0.60;;;0.40;;
9445;SDS011;4761;49.490;10.908;2023-01-10T04:14:44;0.40;;;0.30;;
9445;SDS011;4761;49.490;10.908;2023-01-10T04:17:11;0.30;;;0.30;;
9445;SDS011;4761;49.490;10.908;2023-01-10T04:19:37;0.40;;;0.30;;
9445;SDS011;4761;49.490;10.908;2023-01-10T04:22:03;0.47;;;0.47;;
9445;SDS011;4761;49.490;10.908;2023-01-10T04:24:29;0.53;;;0.40;;
9445;SDS011;4761;49.490;10.908;2023-01-10T04:26:55;1.37;;;0.40;;
9445;SDS011;4761;49.490;10.908;2023-01-10T04:29:21;0.40;;;0.40;;
9445;SDS011;4761;49.490;10.908;2023-01-10T04:31:47;0.50;;;0.50;;
9445;SDS011;4761;49.490;10.908;2023-01-10T04:34:12;0.50;;;0.50;;
9445;SDS011;4761;49.490;10.908;2023-01-10T04:36:38;0.50;;;0.50;;
9445;SDS011;4761;49.490;10.908;2023-01-10T04:39:03;0.53;;;0.50;;
9445;SDS011;4761;49.490;10.908;2023-01-10T04:41:29;0.57;;;0.43;;
9445;SDS011;4761;49.490;10.908;2023-01-10T04:43:54;0.37;;;0.37;;
9445;SDS011;4761;49.490;10.908;2023-01-10T04:46:20;0.67;;;0.50;;
9445;SDS011;4761;49.490;10.908;2023-01-10T04:48:45;0.73;;;0.50;;
9445;SDS011;4761;49.490;10.908;2023-01-10T04:51:11;0.50;;;0.50;;
9445;SDS011;4761;49.490;10.908;2023-01-10T04:53:37;0.60;;;0.50;;
9445;SDS011;4761;49.490;10.908;2023-01-10T04:56:03;0.57;;;0.40;;
9445;SDS011;4761;49.490;10.908;2023-01-10T04:58:31;0.93;;;0.50;;
9445;SDS011;4761;49.490;10.908;2023-01-10T05:01:07;0.40;;;0.40;;
9445;SDS011;4761;49.490;10.908;2023-01-10T05:03:37;0.97;;;0.50;;
9445;SDS011;4761;49.490;10.908;2023-01-10T05:06:03;1.47;;;0.60;;
9445;SDS011;4761;49.490;10.908;2023-01-10T05:08:29;0.80;;;0.50;;
9445;SDS011;4761;49.490;10.908;2023-01-10T05:10:55;0.50;;;0.50;;
9445;SDS011;4761;49.490;10.908;2023-01-10T05:13:20;0.50;;;0.50;;
9445;SDS011;4761;49.490;10.908;2023-01-10T05:15:46;0.87;;;0.60;;
9445;SDS011;4761;49.490;10.908;2023-01-10T05:18:12;0.47;;;0.47;;
9445;SDS011;4761;49.490;10.908;2023-01-10T05:20:37;0.67;;;0.50;;
9445;SDS011;4761;49.490;10.908;2023-01-10T05:23:03;0.43;;;0.43;;
9445;SDS011;4761;49.490;10.908;2023-01-10T05:25:28;0.50;;;0.50;;
9445;SDS011;4761;49.490;10.908;2023-01-10T05:27:54;0.47;;;0.40;;
9445;SDS011;4761;49.490;10.908;2023-01-10T05:30:19;0.80;;;0.47;;
9445;SDS011;4761;49.490;10.908;2023-01-10T05:32:45;0.50;;;0.40;;
9445;SDS011;4761;49.490;10.908;2023-01-10T05:35:10;0.57;;;0.30;;
9445;SDS011;4761;49.490;10.908;2023-01-10T05:37:36;0.70;;;0.60;;
9445;SDS011;4761;49.490;10.908;2023-01-10T05:40:02;0.50;;;0.50;;
9445;SDS011;4761;49.490;10.908;2023-01-10T05:42:28;0.60;;;0.60;;
9445;SDS011;4761;49.490;10.908;2023-01-10T05:44:53;0.70;;;0.50;;
9445;SDS011;4761;49.490;10.908;2023-01-10T05:47:19;0.53;;;0.53;;
9445;SDS011;4761;49.490;10.908;2023-01-10T05:49:44;0.50;;;0.50;;
9445;SDS011;4761;49.490;10.908;2023-01-10T05:52:10;0.50;;;0.50;;
9445;SDS011;4761;49.490;10.908;2023-01-10T05:54:35;0.60;;;0.50;;
9445;SDS011;4761;49.490;10.908;2023-01-10T05:57:01;0.73;;;0.40;;
9445;SDS011;4761;49.490;10.908;2023-01-10T05:59:26;0.47;;;0.47;;
9445;SDS011;4761;49.490;10.908;2023-01-10T06:01:52;0.40;;;0.40;;
9445;SDS011;4761;49.490;10.908;2023-01-10T06:04:17;1.13;;;0.60;;
9445;SDS011;4761;49.490;10.908;2023-01-10T06:06:43;0.40;;;0.40;;
9445;SDS011;4761;49.490;10.908;2023-01-10T06:09:08;0.70;;;0.50;;
9445;SDS011;4761;49.490;10.908;2023-01-10T06:11:34;1.20;;;0.50;;
9445;SDS011;4761;49.490;10.908;2023-01-10T06:14:02;1.10;;;0.80;;
9445;SDS011;4761;49.490;10.908;2023-01-10T06:16:28;1.83;;;0.60;;
9445;SDS011;4761;49.490;10.908;2023-01-10T06:18:54;0.57;;;0.50;;
9445;SDS011;4761;49.490;10.908;2023-01-10T06:21:19;1.37;;;0.60;;
9445;SDS011;4761;49.490;10.908;2023-01-10T06:23:45;0.60;;;0.50;;
9445;SDS011;4761;49.490;10.908;2023-01-10T06:26:11;0.57;;;0.53;;
9445;SDS011;4761;49.490;10.908;2023-01-10T06:28:36;0.67;;;0.50;;
9445;SDS011;4761;49.490;10.908;2023-01-10T06:31:02;0.50;;;0.43;;
9445;SDS011;4761;49.490;10.908;2023-01-10T06:33:27;0.77;;;0.60;;
9445;SDS011;4761;49.490;10.908;2023-01-10T06:35:53;0.60;;;0.60;;
9445;SDS011;4761;49.490;10.908;2023-01-10T06:38:18;0.70;;;0.60;;
9445;SDS011;4761;49.490;10.908;2023-01-10T06:40:44;1.40;;;0.60;;
9445;SDS011;4761;49.490;10.908;2023-01-10T06:43:10;0.97;;;0.60;;
9445;SDS011;4761;49.490;10.908;2023-01-10T06:45:35;0.40;;;0.40;;
9445;SDS011;4761;49.490;10.908;2023-01-10T06:48:01;1.07;;;0.63;;
9445;SDS011;4761;49.490;10.908;2023-01-10T06:50:26;0.83;;;0.60;;
9445;SDS011;4761;49.490;10.908;2023-01-10T06:52:55;1.60;;;0.73;;
9445;SDS011;4761;49.490;10.908;2023-01-10T06:55:22;0.77;;;0.67;;
9445;SDS011;4761;49.490;10.908;2023-01-10T06:57:48;0.63;;;0.50;;
9445;SDS011;4761;49.490;10.908;2023-01-10T07:00:22;0.50;;;0.50;;
9445;SDS011;4761;49.490;10.908;2023-01-10T07:02:48;0.93;;;0.57;;
9445;SDS011;4761;49.490;10.908;2023-01-10T07:05:13;0.80;;;0.50;;
9445;SDS011;4761;49.490;10.908;2023-01-10T07:07:39;0.50;;;0.50;;
9445;SDS011;4761;49.490;10.908;2023-01-10T07:10:04;0.87;;;0.60;;
9445;SDS011;4761;49.490;10.908;2023-01-10T07:12:30;4.50;;;0.63;;
9445;SDS011;4761;49.490;10.908;2023-01-10T07:14:56;0.50;;;0.50;;
9445;SDS011;4761;49.490;10.908;2023-01-10T07:17:21;0.97;;;0.60;;
9445;SDS011;4761;49.490;10.908;2023-01-10T07:19:47;2.33;;;1.40;;
9445;SDS011;4761;49.490;10.908;2023-01-10T07:22:12;2.63;;;1.30;;
9445;SDS011;4761;49.490;10.908;2023-01-10T07:24:38;1.83;;;0.97;;
9445;SDS011;4761;49.490;10.908;2023-01-10T07:27:03;1.90;;;1.20;;
9445;SDS011;4761;49.490;10.908;2023-01-10T07:29:29;2.00;;;1.03;;
9445;SDS011;4761;49.490;10.908;2023-01-10T07:31:54;2.50;;;1.10;;
9445;SDS011;4761;49.490;10.908;2023-01-10T07:34:20;2.13;;;1.20;;
9445;SDS011;4761;49.490;10.908;2023-01-10T07:36:45;2.73;;;1.50;;
9445;SDS011;4761;49.490;10.908;2023-01-10T07:39:11;2.13;;;1.20;;
9445;SDS011;4761;49.490;10.908;2023-01-10T07:41:36;3.80;;;1.50;;
9445;SDS011;4761;49.490;10.908;2023-01-10T07:44:02;3.00;;;1.20;;
9445;SDS011;4761;49.490;10.908;2023-01-10T07:46:27;1.43;;;1.00;;
9445;SDS011;4761;49.490;10.908;2023-01-10T07:48:53;2.07;;;1.20;;
9445;SDS011;4761;49.490;10.908;2023-01-10T07:51:18;1.87;;;1.00;;
9445;SDS011;4761;49.490;10.908;2023-01-10T07:53:44;2.27;;;1.20;;
9445;SDS011;4761;49.490;10.908;2023-01-10T07:56:10;2.37;;;1.30;;
9445;SDS011;4761;49.490;10.908;2023-01-10T07:58:35;2.17;;;1.20;;
9445;SDS011;4761;49.490;10.908;2023-01-10T08:01:01;2.43;;;1.33;;
9445;SDS011;4761;49.490;10.908;2023-01-10T08:03:28;2.23;;;1.20;;
9445;SDS011;4761;49.490;10.908;2023-01-10T08:06:01;2.20;;;1.40;;
9445;SDS011;4761;49.490;10.908;2023-01-10T08:08:29;3.60;;;1.30;;
9445;SDS011;4761;49.490;10.908;2023-01-10T08:10:55;3.00;;;1.33;;
9445;SDS011;4761;49.490;10.908;2023-01-10T08:13:21;2.90;;;1.40;;
9445;SDS011;4761;49.490;10.908;2023-01-10T08:15:47;2.63;;;1.40;;
9445;SDS011;4761;49.490;10.908;2023-01-10T08:18:16;2.60;;;1.40;;
9445;SDS011;4761;49.490;10.908;2023-01-10T08:20:43;4.33;;;1.57;;
9445;SDS011;4761;49.490;10.908;2023-01-10T08:23:11;2.67;;;1.27;;
9445;SDS011;4761;49.490;10.908;2023-01-10T08:25:38;2.37;;;1.13;;
9445;SDS011;4761;49.490;10.908;2023-01-10T08:28:03;2.13;;;1.17;;
9445;SDS011;4761;49.490;10.908;2023-01-10T08:30:29;2.37;;;1.20;;
9445;SDS011;4761;49.490;10.908;2023-01-10T08:32:54;2.20;;;1.37;;
9445;SDS011;4761;49.490;10.908;2023-01-10T08:35:20;2.83;;;1.27;;
9445;SDS011;4761;49.490;10.908;2023-01-10T08:37:46;2.73;;;1.47;;
9445;SDS011;4761;49.490;10.908;2023-01-10T08:40:11;3.80;;;1.83;;
9445;SDS011;4761;49.490;10.908;2023-01-10T08:42:37;4.77;;;1.53;;
9445;SDS011;4761;49.490;10.908;2023-01-10T08:45:03;2.63;;;1.40;;
9445;SDS011;4761;49.490;10.908;2023-01-10T08:47:29;2.40;;;1.73;;
9445;SDS011;4761;49.490;10.908;2023-01-10T08:49:54;2.23;;;1.50;;
9445;SDS011;4761;49.490;10.908;2023-01-10T08:52:20;3.70;;;1.70;;
9445;SDS011;4761;49.490;10.908;2023-01-10T08:54:45;4.20;;;1.80;;
9445;SDS011;4761;49.490;10.908;2023-01-10T08:57:11;3.00;;;1.40;;
9445;SDS011;4761;49.490;10.908;2023-01-10T08:59:36;2.27;;;1.10;;
9445;SDS011;4761;49.490;10.908;2023-01-10T09:02:03;1.03;;;0.57;;
9445;SDS011;4761;49.490;10.908;2023-01-10T09:04:29;1.17;;;0.70;;
9445;SDS011;4761;49.490;10.908;2023-01-10T09:06:55;1.50;;;0.70;;
9445;SDS011;4761;49.490;10.908;2023-01-10T09:09:21;1.87;;;0.90;;
9445;SDS011;4761;49.490;10.908;2023-01-10T09:11:47;0.93;;;0.50;;
9445;SDS011;4761;49.490;10.908;2023-01-10T09:14:13;1.23;;;0.90;;
9445;SDS011;4761;49.490;10.908;2023-01-10T09:16:39;1.67;;;0.53;;
9445;SDS011;4761;49.490;10.908;2023-01-10T09:19:05;1.20;;;0.77;;
9445;SDS011;4761;49.490;10.908;2023-01-10T09:21:30;1.40;;;0.60;;
9445;SDS011;4761;49.490;10.908;2023-01-10T09:23:56;0.90;;;0.60;;
9445;SDS011;4761;49.490;10.908;2023-01-10T09:26:21;1.07;;;0.80;;
9445;SDS011;4761;49.490;10.908;2023-01-10T09:28:47;1.07;;;0.73;;
9445;SDS011;4761;49.490;10.908;2023-01-10T09:31:13;2.37;;;0.80;;
9445;SDS011;4761;49.490;10.908;2023-01-10T09:33:39;2.10;;;1.00;;
9445;SDS011;4761;49.490;10.908;2023-01-10T09:36:08;1.03;;;0.60;;
9445;SDS011;4761;49.490;10.908;2023-01-10T09:38:35;0.60;;;0.60;;
9445;SDS011;4761;49.490;10.908;2023-01-10T09:41:16;1.10;;;0.63;;
9445;SDS011;4761;49.490;10.908;2023-01-10T09:51:48;1.90;;;0.90;;
9445;SDS011;4761;49.490;10.908;2023-01-10T09:54:20;1.23;;;0.73;;
9445;SDS011;4761;49.490;10.908;2023-01-10T09:56:50;1.47;;;0.87;;
9445;SDS011;4761;49.490;10.908;2023-01-10T09:59:19;1.10;;;0.80;;
9445;SDS011;4761;49.490;10.908;2023-01-10T10:01:48;1.13;;;0.70;;
9445;SDS011;4761;49.490;10.908;2023-01-10T10:04:22;3.80;;;0.77;;
9445;SDS011;4761;49.490;10.908;2023-01-10T10:06:54;0.90;;;0.70;;
9445;SDS011;4761;49.490;10.908;2023-01-10T10:09:22;1.43;;;0.90;;
9445;SDS011;4761;49.490;10.908;2023-01-10T10:15:08;1.83;;;1.00;;
9445;SDS011;4761;49.490;10.908;2023-01-10T10:17:50;2.23;;;0.80;;
9445;SDS011;4761;49.490;10.908;2023-01-10T10:21:02;1.67;;;0.80;;
9445;SDS011;4761;49.490;10.908;2023-01-10T10:26:37;1.60;;;0.90;;
9445;SDS011;4761;49.490;10.908;2023-01-10T10:29:39;2.50;;;1.00;;
9445;SDS011;4761;49.490;10.908;2023-01-10T10:32:22;1.43;;;0.90;;
9445;SDS011;4761;49.490;10.908;2023-01-10T10:35:02;1.10;;;0.90;;
9445;SDS011;4761;49.490;10.908;2023-01-10T10:37:41;1.30;;;0.90;;
9445;SDS011;4761;49.490;10.908;2023-01-10T10:42:40;2.23;;;0.90;;
9445;SDS011;4761;49.490;10.908;2023-01-10T10:45:18;1.87;;;0.90;;
9445;SDS011;4761;49.490;10.908;2023-01-10T10:47:52;1.77;;;1.07;;
9445;SDS011;4761;49.490;10.908;2023-01-10T10:50:26;3.20;;;1.20;;
9445;SDS011;4761;49.490;10.908;2023-01-10T10:52:56;2.00;;;1.20;;
9445;SDS011;4761;49.490;10.908;2023-01-10T10:55:32;2.60;;;1.20;;
9445;SDS011;4761;49.490;10.908;2023-01-10T10:58:03;2.77;;;1.20;;
9445;SDS011;4761;49.490;10.908;2023-01-10T11:00:30;1.67;;;0.80;;
9445;SDS011;4761;49.490;10.908;2023-01-10T11:05:31;2.23;;;1.03;;
9445;SDS011;4761;49.490;10.908;2023-01-10T11:08:08;2.67;;;0.90;;
9445;SDS011;4761;49.490;10.908;2023-01-10T11:10:37;1.10;;;1.00;;
9445;SDS011;4761;49.490;10.908;2023-01-10T11:15:41;3.63;;;1.37;;
9445;SDS011;4761;49.490;10.908;2023-01-10T11:18:15;2.20;;;1.23;;
9445;SDS011;4761;49.490;10.908;2023-01-10T11:20:50;2.10;;;1.10;;
9445;SDS011;4761;49.490;10.908;2023-01-10T11:25:55;2.70;;;1.07;;
9445;SDS011;4761;49.490;10.908;2023-01-10T11:28:22;2.07;;;0.97;;
9445;SDS011;4761;49.490;10.908;2023-01-10T11:30:52;1.83;;;1.13;;
9445;SDS011;4761;49.490;10.908;2023-01-10T11:33:21;1.63;;;1.00;;
9445;SDS011;4761;49.490;10.908;2023-01-10T11:35:59;2.20;;;1.00;;
9445;SDS011;4761;49.490;10.908;2023-01-10T11:38:29;3.50;;;1.20;;
9445;SDS011;4761;49.490;10.908;2023-01-10T11:40:57;1.83;;;1.03;;
9445;SDS011;4761;49.490;10.908;2023-01-10T11:45:59;2.10;;;1.20;;
9445;SDS011;4761;49.490;10.908;2023-01-10T11:48:58;1.40;;;0.90;;
9445;SDS011;4761;49.490;10.908;2023-01-10T11:51:25;2.17;;;1.10;;
9445;SDS011;4761;49.490;10.908;2023-01-10T11:53:57;1.83;;;1.00;;
9445;SDS011;4761;49.490;10.908;2023-01-10T11:56:28;3.47;;;1.30;;
9445;SDS011;4761;49.490;10.908;2023-01-10T11:59:05;1.40;;;0.87;;
9445;SDS011;4761;49.490;10.908;2023-01-10T12:01:44;1.93;;;0.87;;
9445;SDS011;4761;49.490;10.908;2023-01-10T12:04:19;1.63;;;1.10;;
9445;SDS011;4761;49.490;10.908;2023-01-10T12:06:49;2.70;;;1.10;;
9445;SDS011;4761;49.490;10.908;2023-01-10T12:12:02;1.50;;;0.83;;
9445;SDS011;4761;49.490;10.908;2023-01-10T12:14:45;1.17;;;0.97;;
9445;SDS011;4761;49.490;10.908;2023-01-10T12:17:16;2.20;;;1.00;;
9445;SDS011;4761;49.490;10.908;2023-01-10T12:19:54;1.90;;;0.90;;
9445;SDS011;4761;49.490;10.908;2023-01-10T12:22:26;1.77;;;1.13;;
9445;SDS011;4761;49.490;10.908;2023-01-10T12:24:59;1.77;;;1.00;;
9445;SDS011;4761;49.490;10.908;2023-01-10T12:27:30;2.40;;;1.20;;
9445;SDS011;4761;49.490;10.908;2023-01-10T12:30:02;2.47;;;1.00;;
9445;SDS011;4761;49.490;10.908;2023-01-10T12:32:38;2.70;;;1.20;;
9445;SDS011;4761;49.490;10.908;2023-01-10T12:35:15;1.30;;;0.90;;
9445;SDS011;4761;49.490;10.908;2023-01-10T12:37:50;1.67;;;1.10;;
9445;SDS011;4761;49.490;10.908;2023-01-10T12:40:30;3.13;;;1.13;;
9445;SDS011;4761;49.490;10.908;2023-01-10T12:43:14;1.37;;;0.77;;
9445;SDS011;4761;49.490;10.908;2023-01-10T12:46:07;2.07;;;1.00;;
9445;SDS011;4761;49.490;10.908;2023-01-10T12:48:48;2.13;;;1.07;;
9445;SDS011;4761;49.490;10.908;2023-01-10T12:51:19;2.47;;;1.20;;
9445;SDS011;4761;49.490;10.908;2023-01-10T12:53:51;2.07;;;1.07;;
9445;SDS011;4761;49.490;10.908;2023-01-10T12:56:19;1.63;;;0.87;;
9445;SDS011;4761;49.490;10.908;2023-01-10T12:58:49;1.37;;;0.90;;
9445;SDS011;4761;49.490;10.908;2023-01-10T13:01:19;2.60;;;1.27;;
9445;SDS011;4761;49.490;10.908;2023-01-10T13:03:55;2.13;;;1.00;;
9445;SDS011;4761;49.490;10.908;2023-01-10T13:06:29;2.30;;;0.90;;
9445;SDS011;4761;49.490;10.908;2023-01-10T13:08:58;3.47;;;0.83;;
9445;SDS011;4761;49.490;10.908;2023-01-10T13:11:29;1.73;;;0.97;;
9445;SDS011;4761;49.490;10.908;2023-01-10T13:14:15;2.07;;;1.13;;
9445;SDS011;4761;49.490;10.908;2023-01-10T13:16:49;2.23;;;0.90;;
9445;SDS011;4761;49.490;10.908;2023-01-10T13:19:26;1.20;;;0.63;;
9445;SDS011;4761;49.490;10.908;2023-01-10T13:24:42;2.90;;;0.97;;
9445;SDS011;4761;49.490;10.908;2023-01-10T13:27:28;1.80;;;0.97;;
9445;SDS011;4761;49.490;10.908;2023-01-10T13:29:58;1.40;;;0.80;;
9445;SDS011;4761;49.490;10.908;2023-01-10T13:32:26;2.23;;;1.10;;
9445;SDS011;4761;49.490;10.908;2023-01-10T13:34:54;1.30;;;0.90;;
9445;SDS011;4761;49.490;10.908;2023-01-10T13:37:53;2.47;;;1.20;;
9445;SDS011;4761;49.490;10.908;2023-01-10T13:40:24;1.13;;;0.80;;
9445;SDS011;4761;49.490;10.908;2023-01-10T13:51:21;2.33;;;1.17;;
9445;SDS011;4761;49.490;10.908;2023-01-10T13:53:51;1.37;;;0.93;;
9445;SDS011;4761;49.490;10.908;2023-01-10T13:56:33;1.43;;;0.90;;
9445;SDS011;4761;49.490;10.908;2023-01-10T13:59:10;1.60;;;1.10;;
9445;SDS011;4761;49.490;10.908;2023-01-10T14:02:09;2.53;;;1.07;;
9445;SDS011;4761;49.490;10.908;2023-01-10T14:05:14;1.70;;;0.73;;
9445;SDS011;4761;49.490;10.908;2023-01-10T14:07:43;2.40;;;1.30;;
9445;SDS011;4761;49.490;10.908;2023-01-10T14:10:23;2.40;;;1.10;;
9445;SDS011;4761;49.490;10.908;2023-01-10T14:15:26;1.40;;;0.90;;
9445;SDS011;4761;49.490;10.908;2023-01-10T14:18:00;2.17;;;0.97;;
9445;SDS011;4761;49.490;10.908;2023-01-10T14:20:29;1.57;;;0.70;;
9445;SDS011;4761;49.490;10.908;2023-01-10T14:23:01;2.07;;;0.90;;
9445;SDS011;4761;49.490;10.908;2023-01-10T14:25:27;2.03;;;0.90;;
9445;SDS011;4761;49.490;10.908;2023-01-10T14:27:55;1.40;;;0.90;;
9445;SDS011;4761;49.490;10.908;2023-01-10T14:30:33;1.70;;;1.00;;
9445;SDS011;4761;49.490;10.908;2023-01-10T14:33:06;1.63;;;1.10;;
9445;SDS011;4761;49.490;10.908;2023-01-10T14:35:42;2.47;;;1.03;;
9445;SDS011;4761;49.490;10.908;2023-01-10T14:38:16;1.97;;;1.00;;
9445;SDS011;4761;49.490;10.908;2023-01-10T14:40:47;1.47;;;0.83;;
9445;SDS011;4761;49.490;10.908;2023-01-10T14:43:16;2.30;;;0.80;;
9445;SDS011;4761;49.490;10.908;2023-01-10T14:45:51;1.63;;;1.10;;
9445;SDS011;4761;49.490;10.908;2023-01-10T14:48:38;2.60;;;1.10;;
9445;SDS011;4761;49.490;10.908;2023-01-10T14:51:06;2.13;;;0.83;;
9445;SDS011;4761;49.490;10.908;2023-01-10T14:53:38;2.63;;;1.10;;
9445;SDS011;4761;49.490;10.908;2023-01-10T14:56:15;2.63;;;1.30;;
9445;SDS011;4761;49.490;10.908;2023-01-10T14:58:46;2.50;;;1.13;;
9445;SDS011;4761;49.490;10.908;2023-01-10T15:01:11;2.13;;;1.10;;
9445;SDS011;4761;49.490;10.908;2023-01-10T15:03:59;2.50;;;1.20;;
9445;SDS011;4761;49.490;10.908;2023-01-10T15:06:26;3.03;;;1.13;;
9445;SDS011;4761;49.490;10.908;2023-01-10T15:08:56;3.10;;;1.30;;
9445;SDS011;4761;49.490;10.908;2023-01-10T15:11:23;1.70;;;1.03;;
9445;SDS011;4761;49.490;10.908;2023-01-10T15:13:54;2.87;;;1.17;;
9445;SDS011;4761;49.490;10.908;2023-01-10T15:16:24;2.63;;;1.30;;
9445;SDS011;4761;49.490;10.908;2023-01-10T15:18:52;2.67;;;1.23;;
9445;SDS011;4761;49.490;10.908;2023-01-10T15:21:20;2.70;;;1.13;;
9445;SDS011;4761;49.490;10.908;2023-01-10T15:23:48;1.63;;;1.00;;
9445;SDS011;4761;49.490;10.908;2023-01-10T15:26:15;1.50;;;1.07;;
9445;SDS011;4761;49.490;10.908;2023-01-10T15:28:44;2.07;;;1.10;;
9445;SDS011;4761;49.490;10.908;2023-01-10T15:31:13;2.50;;;1.10;;
9445;SDS011;4761;49.490;10.908;2023-01-10T15:33:41;1.30;;;1.00;;
9445;SDS011;4761;49.490;10.908;2023-01-10T15:36:13;2.23;;;1.30;;
9445;SDS011;4761;49.490;10.908;2023-01-10T15:38:42;3.60;;;1.43;;
9445;SDS011;4761;49.490;10.908;2023-01-10T15:41:14;2.20;;;1.00;;
9445;SDS011;4761;49.490;10.908;2023-01-10T15:43:42;3.53;;;1.53;;
9445;SDS011;4761;49.490;10.908;2023-01-10T15:46:15;2.73;;;1.40;;
9445;SDS011;4761;49.490;10.908;2023-01-10T15:48:52;3.27;;;1.37;;
9445;SDS011;4761;49.490;10.908;2023-01-10T15:53:55;3.43;;;1.10;;
9445;SDS011;4761;49.490;10.908;2023-01-10T15:56:29;3.20;;;1.33;;
9445;SDS011;4761;49.490;10.908;2023-01-10T15:58:59;3.57;;;1.30;;
9445;SDS011;4761;49.490;10.908;2023-01-10T16:01:25;2.87;;;1.30;;
9445;SDS011;4761;49.490;10.908;2023-01-10T16:03:52;4.17;;;1.60;;
9445;SDS011;4761;49.490;10.908;2023-01-10T16:09:00;2.77;;;1.30;;
9445;SDS011;4761;49.490;10.908;2023-01-10T16:11:36;3.83;;;1.40;;
9445;SDS011;4761;49.490;10.908;2023-01-10T16:14:23;3.30;;;1.40;;
9445;SDS011;4761;49.490;10.908;2023-01-10T16:16:49;3.10;;;1.20;;
9445;SDS011;4761;49.490;10.908;2023-01-10T16:19:14;3.20;;;1.30;;
9445;SDS011;4761;49.490;10.908;2023-01-10T16:21:41;2.80;;;1.33;;
9445;SDS011;4761;49.490;10.908;2023-01-10T16:24:17;3.50;;;1.43;;
9445;SDS011;4761;49.490;10.908;2023-01-10T16:26:46;3.33;;;1.40;;
9445;SDS011;4761;49.490;10.908;2023-01-10T16:29:12;3.20;;;1.40;;
9445;SDS011;4761;49.490;10.908;2023-01-10T16:31:38;2.73;;;1.40;;
9445;SDS011;4761;49.490;10.908;2023-01-10T16:34:04;2.23;;;1.30;;
9445;SDS011;4761;49.490;10.908;2023-01-10T16:36:29;2.53;;;1.23;;
9445;SDS011;4761;49.490;10.908;2023-01-10T16:38:55;3.17;;;1.30;;
9445;SDS011;4761;49.490;10.908;2023-01-10T16:41:20;3.00;;;1.47;;
9445;SDS011;4761;49.490;10.908;2023-01-10T16:44:04;2.93;;;1.30;;
9445;SDS011;4761;49.490;10.908;2023-01-10T16:46:30;2.90;;;1.30;;